Airfield :
LOGIN :

Register | Disclaimer

   EN    FR    IT 

 










Legend :    VFR   Marginal VFR   IFR   Intensive IFR   Very Intensive IFR
Visi :
Ceiling :
>= 8 km
>= 3000ft
5 to 8 km
1000 to 3000 ft
1500m to 5 km
500 to 1000 ft
800 to 1500m
200 to 500 ft
< 800m
< 200 ft
Symbols :   Thunderstorms  Fog  Heavy snow  Heavy precipitations  Wind > 20 kt
SIGMETs :     Misc.  Thunderstorms  Icing  Turbulence  Mountain Waves  Volcanic Ashes






- Airport Elevation : 158 ft
- IATA code : QAR


EHDL - Deelen Airbase

CURRENT METAR :
  • 051055Z AUTO 15018KT 080V220 9999 NCD 18/01 Q1021 BLU

EXPIRED METARs :
  • 051025Z AUTO 15016G28KT 070V200 9999 NCD 17/01 Q1021 BLU
  • 050955Z AUTO 14015KT 080V210 9999 NCD 16/02 Q1022 BLU
  • 050925Z AUTO 14014KT 100V220 9999 NCD 15/02 Q1022 BLU
  • 050855Z AUTO 13011KT 090V200 9999 NCD 14/03 Q1023 BLU
  • 050825Z AUTO 14013KT 090V200 9999 NCD 12/02 Q1023 BLU
  • 050755Z AUTO 14014KT 090V200 9999 NCD 11/02 Q1023 BLU

Expired Forecast.



MET'MAP, your aeronautical weather chart ! - Copyright ORBIFLY December 2007 - Disclaimer

ORBIFLY MET'MAP TEAM :

Programming & Development : Alexandra Zaïnal
Concept & original design : Baudouin d'Aumeries
Assistance for programming : Marc-Olivier Méhu
Technical & hardware support : Manuel Goepfert

Contact : metmap@orbifly.com




SOURCES & CREDITS :

   NOAA